메인 페이지
METAR-TAF:

METAR-TAF

공항 :

베이루트, 레바논

위도: 33-49N, 경도: 035-29E, 고도: 29m

현재 날씨관측

예보는 34분 전, 09:00시(UTC)에 발표되었습니다.
남남서18kt
온도 16°C
습도 77%
기압 1012 hPa
시정: 6000m
고도 2600ft 상공 구름 많음
약한비

METAR: OLBA 180900Z 20018KT 6000 -RA BKN026 16/12 Q1012 NOSIG

시각: 11:34 (09:34 UTC)

예보

예보는 5 시간 34분 전, 04:00시(UTC)에 발표되었습니다.
예보 대상 시간: 18일 06시부터 19일 12시까지 (UTC)
남서30kt, 순간 최대 풍속 45kt
시정: 7000m
고도 2500ft 상공 구름 많음
약한비
일시적
18일 12시부터 19일 03시까지 (UTC)
시정: 4000m
고도 2000ft 상공 구름 조금, 적란운.
고도 2300ft 상공 흐림
전환 중
19일 03시부터 19일 06시까지 (UTC)
서북서20kt
전환 중
19일 06시부터 19일 09시까지 (UTC)
북북서18kt
시정: 8000m
고도 2600ft 상공 구름 보통
고도 7000ft 상공 구름 보통
이슬비
일시적
19일 06시부터 19일 12시까지 (UTC)

TAF: OLBA 180400Z 1806/1912 23030G45KT 7000 -RA BKN025 TEMPO 1812/1903 4000 TSSHRA FEW020CB OVC023 BECMG 1903/1906 29020KT BECMG 1906/1909 33018KT 8000 DZ SCT026 SCT070 TEMPO 1906/1912 RA

4,000개 이상의 공항 관측 자료 및 예보 (METAR 및 TAF 보고).

지도상에서 검색 가능한 기상관측소가 노란 점과 빨간 점으로 표시되어 있습니다.

기상관측소 명을 보려면 표시 위로 마우스를 이동하세요.

날씨 관측과 예보를 보려면 클릭하세요.

지도 변경 : 확대하려면 엑스 표시가 있는 녹색 버튼, 축소하려면 빼기 표시가 있는 녹색 버튼, 다음 페이지의 지도를 보려면 녹색 화살표를 클릭하세요.


METAR-TAF: